METAR AND TAF INFORMATION
METAR FOR LPFR
ADDS - METARS form results

(1222 UTC 20 April 2018)
Data provider http://aviationweather.gov/adds/metars/
 
METAR text: LPFR 201200Z 10014KT 9999 SCT028 18/13 Q1014
Conditions at: LPFR (FARO , PT) observed 1200 UTC 20 April 2018
Temperature: 18.0°C (64°F)
Dewpoint: 13.0°C (55°F) [RH = 73%]
Pressure (altimeter): 29.94 inches Hg (1014.0 mb)
Winds: from the E (100 degrees) at 16 MPH (14 knots; 7.3 m/s)
Visibility: 6 or more miles (10+ km)
Ceiling: at least 12,000 feet AGL
Clouds: scattered clouds at 2800 feet AGL
Weather: no significant weather observed at this time

METAR text: LPFR 201130Z 09013KT 9999 FEW020 18/12 Q1013
Conditions at: LPFR (FARO , PT) observed 1130 UTC 20 April 2018
Temperature: 18.0°C (64°F)
Dewpoint: 12.0°C (54°F) [RH = 68%]
Pressure (altimeter): 29.91 inches Hg (1013.0 mb)
Winds: from the E (90 degrees) at 15 MPH (13 knots; 6.8 m/s)
Visibility: 6 or more miles (10+ km)
Ceiling: at least 12,000 feet AGL
Clouds: few clouds at 2000 feet AGL
Weather: no significant weather observed at this time

Forecast for: LPFR (FARO , PT)
Text: TAF LPFR 201130Z 2012/2112 11020KT 9999 SCT030
Forecast period: 1200 to 2100 UTC 20 April 2018
Forecast type: FROM: standard forecast or significant change
Winds: from the ESE (110 degrees) at 23 MPH (20 knots; 10.4 m/s)
Visibility: 6 or more miles (10+ km)
Clouds: scattered clouds at 3000 feet AGL
Weather: no significant weather forecast for this period
Forecast for: LPFR (FARO , PT)
Text: TAF LPFR 201130Z 2012/2112 11020KT 9999 SCT030
Forecast period: 1200 to 2100 UTC 20 April 2018
Forecast type: FROM: standard forecast or significant change
Winds: from the ESE (110 degrees) at 23 MPH (20 knots; 10.4 m/s)
Visibility: 6 or more miles (10+ km)
Clouds: scattered clouds at 3000 feet AGL
Weather: no significant weather forecast for this period
Forecast for: LPFR (FARO , PT)
Text: TAF LPFR 201130Z 2012/2112 11020KT 9999 SCT030
Forecast period: 1200 to 2100 UTC 20 April 2018
Forecast type: TEMPORARY: The following changes expected for less than half the time period
Winds: from the ESE (110 degrees) at 29 MPH (25 knots; 13.0 m/s)
gusting to 43 MPH (37 knots; 19.2 m/s)
Visibility: 5 miles (8 km)
Ceiling: 2000 feet AGL
Clouds: broken clouds at 2000 feet AGL
few clouds at 2500 feet AGL
Weather: SHRA  (rain showers)
Forecast for: LPFR (FARO , PT)
Text: TAF LPFR 201130Z 2012/2112 11020KT 9999 SCT030
Forecast period: 1200 to 2100 UTC 20 April 2018
Forecast type: TEMPORARY: The following changes expected for less than half the time period
Winds: from the ESE (110 degrees) at 29 MPH (25 knots; 13.0 m/s)
gusting to 43 MPH (37 knots; 19.2 m/s)
Visibility: 5 miles (8 km)
Ceiling: 2000 feet AGL
Clouds: broken clouds at 2000 feet AGL
few clouds at 2500 feet AGL
Weather: SHRA  (rain showers)
Forecast for: LPFR (FARO , PT)
Text: TAF LPFR 201130Z 2012/2112 11020KT 9999 SCT030
Forecast period: 2100 UTC 20 April 2018 to 1200 UTC 21 April 2018
Forecast type: BECOMING: Conditions expected to become as follows by 0000 UTC 21 April 2018
Winds: from the SE (140 degrees) at 17 MPH (15 knots; 7.8 m/s)
Visibility: 4 miles (6 km)
Ceiling: 3000 feet AGL
Clouds: scattered clouds at 1500 feet AGL
broken clouds at 3000 feet AGL
Weather: -RA  (light rain)
Forecast for: LPFR (FARO , PT)
Text: TAF LPFR 201130Z 2012/2112 11020KT 9999 SCT030
Forecast period: 2100 UTC 20 April 2018 to 1200 UTC 21 April 2018
Forecast type: BECOMING: Conditions expected to become as follows by 0000 UTC 21 April 2018
Winds: from the SE (140 degrees) at 17 MPH (15 knots; 7.8 m/s)
Visibility: 4 miles (6 km)
Ceiling: 3000 feet AGL
Clouds: scattered clouds at 1500 feet AGL
broken clouds at 3000 feet AGL
Weather: -RA  (light rain)
Forecast for: LPFR (FARO , PT)
Text: TAF LPFR 201130Z 2012/2112 11020KT 9999 SCT030
Forecast period: 2100 UTC 20 April 2018 to 1200 UTC 21 April 2018
Forecast type: TEMPORARY: The following changes expected for less than half the time period
Visibility: 1.86 miles (2.99 km)
Ceiling: 1400 feet AGL
Clouds: scattered clouds at 800 feet AGL
broken clouds at 1400 feet AGL
Weather: RA BR  (rain, mist)
Forecast for: LPFR (FARO , PT)
Text: TAF LPFR 201130Z 2012/2112 11020KT 9999 SCT030
Forecast period: 2100 UTC 20 April 2018 to 1200 UTC 21 April 2018
Forecast type: TEMPORARY: The following changes expected for less than half the time period
Visibility: 1.86 miles (2.99 km)
Ceiling: 1400 feet AGL
Clouds: scattered clouds at 800 feet AGL
broken clouds at 1400 feet AGL
Weather: RA BR  (rain, mist)

 AIRPORT MAP

 RUNWAY INFORMATION
Runway 10 Runway length 8169 ft Runway width 148 ft
Runway elevation 24 ft Runway displaced threshold 148 ft Runway heading 100
Runway 28 Runway length 8169 ft Runway width 148 ft
Runway elevation 18 ft Runway displaced threshold 148 ft Runway heading 280

 AIRPORT FREQUENCIES
Type APP Name APP Frequency 119.4 MHZ
Type ATIS Name ATIS Frequency 124.2 MHZ
Type GND Name GND Frequency 118.575 MHZ
Type TWR Name TWR Frequency 118.2 MHZ

 AIRPORT NEAR NAVIGATION AIDS
Type NDB Name Faro Frequency 332 KHZ
Type VOR-DME Name Faro Frequency 112800 KHZ



Powered by Virtual Airlines Manager [v2.6.2]